createdAt,value
2023-05-13T00:00:03.452Z,11.50
2023-05-13T00:02:31.945Z,11.50
2023-05-13T00:04:59.360Z,11.50
2023-05-13T00:07:26.798Z,11.50
2023-05-13T00:09:54.109Z,11.40
2023-05-13T00:12:21.480Z,11.40
2023-05-13T00:14:48.857Z,11.40
2023-05-13T00:17:16.264Z,11.40
2023-05-13T00:19:43.575Z,11.40
2023-05-13T00:22:11.115Z,11.40
2023-05-13T00:24:38.429Z,11.40
2023-05-13T00:27:05.978Z,11.40
2023-05-13T00:29:33.339Z,11.40
2023-05-13T00:32:00.744Z,11.40
2023-05-13T00:34:28.140Z,11.30
2023-05-13T00:36:55.508Z,11.30
2023-05-13T00:39:22.996Z,11.30
2023-05-13T00:41:50.288Z,11.40
2023-05-13T00:44:17.610Z,11.30
2023-05-13T00:46:45.010Z,11.30
2023-05-13T00:49:12.329Z,11.30
2023-05-13T00:51:39.649Z,11.30
2023-05-13T00:54:06.996Z,11.30
2023-05-13T00:56:34.703Z,11.30
2023-05-13T00:59:02.036Z,11.30
2023-05-13T01:01:33.292Z,11.30
2023-05-13T01:04:18.720Z,11.30
2023-05-13T01:06:51.232Z,11.30
2023-05-13T01:09:30.742Z,11.30
2023-05-13T01:11:58.078Z,11.30
2023-05-13T01:14:32.884Z,11.30
2023-05-13T01:17:11.845Z,11.30
2023-05-13T01:19:43.095Z,11.20
2023-05-13T01:22:10.476Z,11.20
2023-05-13T01:24:38.219Z,11.20
2023-05-13T01:27:05.965Z,11.20
2023-05-13T01:29:33.529Z,11.20
2023-05-13T01:32:01.852Z,11.20
2023-05-13T01:34:29.254Z,11.20
2023-05-13T01:36:56.653Z,11.20
2023-05-13T01:39:24.456Z,11.20
2023-05-13T01:41:54.729Z,11.20
2023-05-13T01:44:22.041Z,11.20
2023-05-13T01:46:50.756Z,11.20
2023-05-13T01:49:18.947Z,11.20
2023-05-13T01:51:46.704Z,11.20
2023-05-13T01:54:14.019Z,11.20
2023-05-13T01:56:47.695Z,11.20
2023-05-13T01:59:15.432Z,11.20
2023-05-13T02:01:43.121Z,11.10
2023-05-13T02:04:10.473Z,11.10
2023-05-13T02:06:38.047Z,11.10
2023-05-13T02:09:05.470Z,11.10
2023-05-13T02:11:32.854Z,11.10
2023-05-13T02:14:00.316Z,11.10
2023-05-13T02:16:27.805Z,11.10
2023-05-13T02:18:55.209Z,11.10
2023-05-13T02:21:28.581Z,11.10
2023-05-13T02:23:56.107Z,11.10
2023-05-13T02:26:23.368Z,11.10
2023-05-13T02:28:50.675Z,11.10
2023-05-13T02:31:18.095Z,11.10
2023-05-13T02:33:45.447Z,11.10
2023-05-13T02:36:12.758Z,11.10
2023-05-13T02:38:40.075Z,11.10
2023-05-13T02:41:09.205Z,11.10
2023-05-13T02:43:36.774Z,11.00
2023-05-13T02:46:06.393Z,11.00
2023-05-13T02:48:34.609Z,11.00
2023-05-13T02:51:02.374Z,11.00
2023-05-13T02:53:29.826Z,10.90
2023-05-13T02:56:01.859Z,11.00
2023-05-13T02:58:29.247Z,11.00
2023-05-13T03:00:56.806Z,11.00
2023-05-13T03:03:25.351Z,11.00
2023-05-13T03:05:52.922Z,11.00
2023-05-13T03:08:20.218Z,10.90
2023-05-13T03:10:47.504Z,10.90
2023-05-13T03:13:14.832Z,10.90
2023-05-13T03:15:44.439Z,11.00
2023-05-13T03:18:12.614Z,10.90
2023-05-13T03:20:40.308Z,10.90
2023-05-13T03:23:08.884Z,10.90
2023-05-13T03:25:36.353Z,11.00
2023-05-13T03:28:04.118Z,10.90
2023-05-13T03:30:36.015Z,11.00
2023-05-13T03:33:07.354Z,10.90
2023-05-13T03:35:34.679Z,10.90
2023-05-13T03:38:02.436Z,11.00
2023-05-13T03:40:30.614Z,11.00
2023-05-13T03:42:57.918Z,10.90
2023-05-13T03:45:25.775Z,10.90
2023-05-13T03:47:57.637Z,10.90
2023-05-13T03:50:25.755Z,10.90
2023-05-13T03:52:53.443Z,10.90
2023-05-13T03:55:22.346Z,10.90
2023-05-13T03:57:49.817Z,10.90
2023-05-13T04:00:19.603Z,11.00
2023-05-13T04:02:48.961Z,10.90
2023-05-13T04:05:16.613Z,10.90
2023-05-13T04:07:43.980Z,10.90
2023-05-13T04:10:14.614Z,10.90
2023-05-13T04:12:42.807Z,10.90
2023-05-13T04:15:10.562Z,10.90
2023-05-13T04:17:37.861Z,10.90
2023-05-13T04:20:05.983Z,10.90
2023-05-13T04:22:34.783Z,10.90
2023-05-13T04:25:02.121Z,10.90
2023-05-13T04:27:29.402Z,10.90
2023-05-13T04:30:03.632Z,10.90
2023-05-13T04:32:33.469Z,10.90
2023-05-13T04:35:01.299Z,10.80
2023-05-13T04:37:30.613Z,10.90
2023-05-13T04:40:01.418Z,10.80
2023-05-13T04:42:28.807Z,10.90
2023-05-13T04:44:56.170Z,10.80
2023-05-13T04:47:23.545Z,10.80
2023-05-13T04:49:50.951Z,10.80
2023-05-13T04:52:19.555Z,10.80
2023-05-13T04:54:46.881Z,10.80
2023-05-13T04:57:14.225Z,10.80
2023-05-13T04:59:41.532Z,10.80
2023-05-13T05:02:10.639Z,10.80
2023-05-13T05:04:38.456Z,10.70
2023-05-13T05:07:11.528Z,10.70
2023-05-13T05:09:38.864Z,10.70
2023-05-13T05:12:06.727Z,10.70
2023-05-13T05:14:36.002Z,10.70
2023-05-13T05:17:03.487Z,10.70
2023-05-13T05:19:30.795Z,10.70
2023-05-13T05:21:58.364Z,10.70
2023-05-13T05:24:26.346Z,10.70
2023-05-13T05:26:53.719Z,10.70
2023-05-13T05:29:21.009Z,10.70
2023-05-13T05:31:48.591Z,10.70
2023-05-13T05:34:15.956Z,10.70
2023-05-13T05:36:44.124Z,10.70
2023-05-13T05:39:12.964Z,10.70
2023-05-13T05:41:40.324Z,10.60
2023-05-13T05:44:07.996Z,10.60
2023-05-13T05:46:35.501Z,10.70
2023-05-13T05:49:03.610Z,10.70
2023-05-13T05:51:33.345Z,10.70
2023-05-13T05:54:02.262Z,10.70
2023-05-13T05:56:30.061Z,10.70
2023-05-13T05:58:57.343Z,10.70
2023-05-13T06:01:25.087Z,10.70
2023-05-13T06:03:54.899Z,10.80
2023-05-13T06:06:22.853Z,10.80
2023-05-13T06:08:50.300Z,10.80
2023-05-13T06:11:17.724Z,10.80
2023-05-13T06:13:45.104Z,10.80
2023-05-13T06:16:12.529Z,10.80
2023-05-13T06:18:40.341Z,10.80
2023-05-13T06:21:07.721Z,10.80
2023-05-13T06:23:35.057Z,10.80
2023-05-13T06:26:02.341Z,10.80
2023-05-13T06:28:29.649Z,10.80
2023-05-13T06:30:57.460Z,10.80
2023-05-13T06:33:25.005Z,10.80
2023-05-13T06:35:53.376Z,10.80
2023-05-13T06:38:22.471Z,10.80
2023-05-13T06:40:52.916Z,10.90
2023-05-13T06:43:26.305Z,10.90
2023-05-13T06:45:57.785Z,10.90
2023-05-13T06:48:26.975Z,10.90
2023-05-13T06:50:54.308Z,10.90
2023-05-13T06:53:21.922Z,10.90
2023-05-13T06:55:49.518Z,11.00
2023-05-13T06:58:16.881Z,11.00
2023-05-13T07:00:46.613Z,11.10
2023-05-13T07:03:14.000Z,11.00
2023-05-13T07:05:41.362Z,11.00
2023-05-13T07:08:08.830Z,11.00
2023-05-13T07:10:36.894Z,11.00
2023-05-13T07:13:04.316Z,11.10
2023-05-13T07:15:31.648Z,11.10
2023-05-13T07:17:58.993Z,11.00
2023-05-13T07:20:27.090Z,11.00
2023-05-13T07:22:54.417Z,11.00
2023-05-13T07:25:21.759Z,11.00
2023-05-13T07:27:49.046Z,11.00
2023-05-13T07:30:16.292Z,11.00
2023-05-13T07:32:43.709Z,11.00
2023-05-13T07:35:11.098Z,11.10
2023-05-13T07:37:38.448Z,11.10
2023-05-13T07:40:06.638Z,11.00
2023-05-13T07:42:33.945Z,11.10
2023-05-13T07:45:01.257Z,11.10
2023-05-13T07:47:29.134Z,11.10
2023-05-13T07:49:56.770Z,11.10
2023-05-13T07:52:24.073Z,11.10
2023-05-13T07:54:51.417Z,11.10
2023-05-13T07:57:18.733Z,11.10
2023-05-13T07:59:46.091Z,11.10
2023-05-13T08:02:13.407Z,11.10
2023-05-13T08:04:40.837Z,11.10
2023-05-13T08:07:09.634Z,11.10
2023-05-13T08:09:36.986Z,11.10
2023-05-13T08:12:04.473Z,11.10
2023-05-13T08:14:31.790Z,11.10
2023-05-13T08:16:59.172Z,11.00
2023-05-13T08:19:26.495Z,11.00
2023-05-13T08:21:53.860Z,11.00
2023-05-13T08:24:21.151Z,11.00
2023-05-13T08:26:48.445Z,11.00
2023-05-13T08:29:15.854Z,11.00
2023-05-13T08:31:43.278Z,11.10
2023-05-13T08:34:11.019Z,11.10
2023-05-13T08:36:38.408Z,11.10
2023-05-13T08:39:05.752Z,11.10
2023-05-13T08:41:34.086Z,11.10
2023-05-13T08:44:01.639Z,11.10
2023-05-13T08:46:29.096Z,11.10
2023-05-13T08:48:56.596Z,11.10
2023-05-13T08:51:24.019Z,11.10
2023-05-13T08:53:52.135Z,11.10
2023-05-13T08:56:19.560Z,11.10
2023-05-13T08:58:46.871Z,11.10
2023-05-13T09:01:14.317Z,11.20
2023-05-13T09:03:55.603Z,11.20
2023-05-13T09:06:23.249Z,11.20
2023-05-13T09:08:50.578Z,11.20
2023-05-13T09:11:17.915Z,11.30
2023-05-13T09:13:45.457Z,11.30
2023-05-13T09:16:15.609Z,11.30
2023-05-13T09:18:43.319Z,11.40
2023-05-13T09:21:37.174Z,11.40
2023-05-13T09:24:18.200Z,11.40
2023-05-13T09:26:46.010Z,11.40
2023-05-13T09:29:17.601Z,11.40
2023-05-13T09:31:50.208Z,11.40
2023-05-13T09:34:34.335Z,11.40
2023-05-13T09:37:03.360Z,11.50
2023-05-13T09:39:43.891Z,11.40
2023-05-13T09:42:17.755Z,11.50
2023-05-13T09:44:48.916Z,11.50
2023-05-13T09:47:16.851Z,11.50
2023-05-13T09:49:45.290Z,11.60
2023-05-13T09:52:13.671Z,11.60
2023-05-13T09:54:40.973Z,11.70
2023-05-13T09:57:08.290Z,11.70
2023-05-13T09:59:35.684Z,11.80
2023-05-13T10:02:05.044Z,11.80
2023-05-13T10:04:32.681Z,11.80
2023-05-13T10:07:01.231Z,11.80
2023-05-13T10:09:29.203Z,11.70
2023-05-13T10:11:56.636Z,11.70
2023-05-13T10:14:23.927Z,11.80
2023-05-13T10:16:51.682Z,11.80
2023-05-13T10:19:19.125Z,11.80
2023-05-13T10:21:46.560Z,11.80
2023-05-13T10:24:14.281Z,11.90
2023-05-13T10:26:43.651Z,11.90
2023-05-13T10:29:11.495Z,11.90
2023-05-13T10:31:39.391Z,11.90
2023-05-13T10:34:06.709Z,12.00
2023-05-13T10:36:49.059Z,12.00
2023-05-13T10:39:44.246Z,12.00
2023-05-13T10:42:40.994Z,12.10
2023-05-13T10:45:08.983Z,12.10
2023-05-13T10:47:36.947Z,12.20
2023-05-13T10:50:24.146Z,12.10
2023-05-13T10:52:51.659Z,12.20
2023-05-13T10:55:20.347Z,12.20
2023-05-13T10:58:11.104Z,12.20
2023-05-13T11:00:42.854Z,12.30
2023-05-13T11:03:14.974Z,12.30
2023-05-13T11:05:49.151Z,12.30
2023-05-13T11:08:55.988Z,12.30
2023-05-13T11:11:30.250Z,12.40
2023-05-13T11:14:19.423Z,12.40
2023-05-13T11:17:10.369Z,12.40
2023-05-13T11:19:38.989Z,12.40
2023-05-13T11:22:12.868Z,12.40
2023-05-13T11:24:40.531Z,12.40
2023-05-13T11:27:16.316Z,12.40
2023-05-13T11:29:53.771Z,12.40
2023-05-13T11:32:56.497Z,12.40
2023-05-13T11:35:31.730Z,12.40
2023-05-13T11:38:00.712Z,12.40
2023-05-13T11:40:31.867Z,12.50
2023-05-13T11:42:59.506Z,12.50
2023-05-13T11:45:27.252Z,12.50
2023-05-13T11:47:54.924Z,12.50
2023-05-13T11:50:32.440Z,12.50
2023-05-13T11:53:00.723Z,12.60
2023-05-13T11:55:32.340Z,12.60
2023-05-13T11:57:59.873Z,12.70
2023-05-13T12:00:33.969Z,12.70
2023-05-13T12:03:03.312Z,12.70
2023-05-13T12:05:30.821Z,12.60
2023-05-13T12:07:58.615Z,12.60
2023-05-13T12:10:26.382Z,12.60
2023-05-13T12:12:53.736Z,12.70
2023-05-13T12:15:21.603Z,12.70
2023-05-13T12:17:49.441Z,12.70
2023-05-13T12:20:18.155Z,12.80
2023-05-13T12:22:46.841Z,12.90
2023-05-13T12:25:33.406Z,13.00
2023-05-13T12:28:07.052Z,13.10
2023-05-13T12:30:35.363Z,13.10
2023-05-13T12:33:04.619Z,13.00
2023-05-13T12:35:32.862Z,13.10
2023-05-13T12:38:06.653Z,13.10
2023-05-13T12:40:34.159Z,13.20
2023-05-13T12:43:02.077Z,13.20
2023-05-13T12:45:30.577Z,13.30
2023-05-13T12:47:58.097Z,13.30
2023-05-13T12:50:25.925Z,13.40
2023-05-13T12:52:53.680Z,13.40
2023-05-13T12:55:21.426Z,13.40
2023-05-13T12:58:00.678Z,13.40
2023-05-13T13:00:28.105Z,13.40
2023-05-13T13:02:55.772Z,13.40
2023-05-13T13:05:24.073Z,13.30
2023-05-13T13:07:51.712Z,13.30
2023-05-13T13:10:19.385Z,13.30
2023-05-13T13:12:46.935Z,13.30
2023-05-13T13:15:14.280Z,13.30
2023-05-13T13:17:41.655Z,13.30
2023-05-13T13:20:09.343Z,13.30
2023-05-13T13:22:37.353Z,13.30
2023-05-13T13:25:05.959Z,13.30
2023-05-13T13:27:34.227Z,13.30
2023-05-13T13:30:01.965Z,13.30
2023-05-13T13:32:29.381Z,13.30
2023-05-13T13:34:58.328Z,13.30
2023-05-13T13:37:25.834Z,13.30
2023-05-13T13:39:53.172Z,13.40
2023-05-13T13:42:21.392Z,13.40
2023-05-13T13:44:49.550Z,13.50
2023-05-13T13:47:16.895Z,13.50
2023-05-13T13:49:44.233Z,13.60
2023-05-13T13:52:11.786Z,13.70
2023-05-13T13:54:39.184Z,13.80
2023-05-13T13:57:06.488Z,13.90
2023-05-13T13:59:33.849Z,14.00
2023-05-13T14:02:01.320Z,14.10
2023-05-13T14:04:30.267Z,14.20
2023-05-13T14:06:57.845Z,14.10
2023-05-13T14:09:25.312Z,14.20
2023-05-13T14:11:53.956Z,14.10
2023-05-13T14:14:21.295Z,14.10
2023-05-13T14:16:48.869Z,14.10
2023-05-13T14:19:18.093Z,14.10
2023-05-13T14:21:48.620Z,14.10
2023-05-13T14:24:16.025Z,14.10
2023-05-13T14:26:43.311Z,14.10
2023-05-13T14:29:10.846Z,14.00
2023-05-13T14:31:38.398Z,14.00
2023-05-13T14:34:07.949Z,14.00
2023-05-13T14:36:36.103Z,14.00
2023-05-13T14:39:03.485Z,14.00
2023-05-13T14:41:31.050Z,14.00
2023-05-13T14:43:58.391Z,14.00
2023-05-13T14:46:25.731Z,14.00
2023-05-13T14:48:53.182Z,14.00
2023-05-13T14:51:21.085Z,14.10
2023-05-13T14:53:48.428Z,14.10
2023-05-13T14:56:15.757Z,14.20
2023-05-13T14:58:43.092Z,14.30
2023-05-13T15:01:10.444Z,14.30
2023-05-13T15:03:38.205Z,14.50
2023-05-13T15:06:06.334Z,14.50
2023-05-13T15:08:33.642Z,14.60
2023-05-13T15:11:01.044Z,14.50
2023-05-13T15:13:29.770Z,14.60
2023-05-13T15:15:57.113Z,14.60
2023-05-13T15:18:24.480Z,14.60
2023-05-13T15:20:51.882Z,14.70
2023-05-13T15:23:19.275Z,14.70
2023-05-13T15:25:47.030Z,14.70
2023-05-13T15:28:14.670Z,14.60
2023-05-13T15:30:42.623Z,14.60
2023-05-13T15:33:10.062Z,14.60
2023-05-13T15:35:37.490Z,14.60
2023-05-13T15:38:04.958Z,14.60
2023-05-13T15:40:32.259Z,14.60
2023-05-13T15:42:59.602Z,14.60
2023-05-13T15:45:27.003Z,14.60
2023-05-13T15:47:54.461Z,14.60
2023-05-13T15:50:22.166Z,14.60
2023-05-13T15:52:49.738Z,14.60
2023-05-13T15:55:17.164Z,14.50
2023-05-13T15:57:44.615Z,14.50
2023-05-13T16:00:12.625Z,14.50
2023-05-13T16:02:41.370Z,14.50
2023-05-13T16:05:08.921Z,14.50
2023-05-13T16:07:36.298Z,14.50
2023-05-13T16:10:04.336Z,14.50
2023-05-13T16:12:31.693Z,14.50
2023-05-13T16:14:59.097Z,14.60
2023-05-13T16:17:26.471Z,14.70
2023-05-13T16:19:54.049Z,14.90
2023-05-13T16:22:32.891Z,15.00
2023-05-13T16:25:04.767Z,15.10
2023-05-13T16:27:32.681Z,15.10
2023-05-13T16:30:00.739Z,15.10
2023-05-13T16:32:28.195Z,15.20
2023-05-13T16:34:55.828Z,15.10
2023-05-13T16:37:23.259Z,15.00
2023-05-13T16:39:50.571Z,15.00
2023-05-13T16:42:19.615Z,14.90
2023-05-13T16:44:47.364Z,14.90
2023-05-13T16:47:14.711Z,14.90
2023-05-13T16:49:43.528Z,14.90
2023-05-13T16:52:10.834Z,14.90
2023-05-13T16:54:38.268Z,14.90
2023-05-13T16:57:05.943Z,14.80
2023-05-13T16:59:33.413Z,14.80
2023-05-13T17:02:00.805Z,14.70
2023-05-13T17:04:28.512Z,14.80
2023-05-13T17:06:58.353Z,14.80
2023-05-13T17:09:26.666Z,14.70
2023-05-13T17:11:54.862Z,14.70
2023-05-13T17:14:22.407Z,14.70
2023-05-13T17:16:49.781Z,14.70
2023-05-13T17:19:17.444Z,14.60
2023-05-13T17:21:44.872Z,14.60
2023-05-13T17:24:12.211Z,14.60
2023-05-13T17:26:39.610Z,14.60
2023-05-13T17:29:07.246Z,14.60
2023-05-13T17:31:34.614Z,14.60
2023-05-13T17:34:02.147Z,14.60
2023-05-13T17:36:29.500Z,14.60
2023-05-13T17:38:56.961Z,14.50
2023-05-13T17:41:24.352Z,14.60
2023-05-13T17:43:51.674Z,14.60
2023-05-13T17:46:19.015Z,14.50
2023-05-13T17:48:46.413Z,14.50
2023-05-13T17:51:13.820Z,14.50
2023-05-13T17:53:41.210Z,14.50
2023-05-13T17:56:10.365Z,14.50
2023-05-13T17:58:37.973Z,14.40
2023-05-13T18:01:06.024Z,14.40
2023-05-13T18:03:34.465Z,14.40
2023-05-13T18:06:01.929Z,14.40
2023-05-13T18:08:29.392Z,14.40
2023-05-13T18:10:56.814Z,14.30
2023-05-13T18:13:24.128Z,14.30
2023-05-13T18:15:51.482Z,14.40
2023-05-13T18:18:18.876Z,14.40
2023-05-13T18:20:46.232Z,14.40
2023-05-13T18:23:13.606Z,14.30
2023-05-13T18:25:54.666Z,14.30
2023-05-13T18:28:22.770Z,14.30
2023-05-13T18:30:50.335Z,14.30
2023-05-13T18:33:19.861Z,14.30
2023-05-13T18:35:47.463Z,14.30
2023-05-13T18:38:14.857Z,14.20
2023-05-13T18:40:42.214Z,14.20
2023-05-13T18:43:09.594Z,14.20
2023-05-13T18:45:37.028Z,14.20
2023-05-13T18:48:04.631Z,14.10
2023-05-13T18:50:32.069Z,14.10
2023-05-13T18:52:59.424Z,14.10
2023-05-13T18:55:26.917Z,14.10
2023-05-13T18:57:54.293Z,14.10
2023-05-13T19:00:21.925Z,14.10
2023-05-13T19:02:49.607Z,14.00
2023-05-13T19:05:19.118Z,14.00
2023-05-13T19:07:47.798Z,14.10
2023-05-13T19:10:15.857Z,14.00
2023-05-13T19:12:44.152Z,14.00
2023-05-13T19:15:12.119Z,14.00
2023-05-13T19:17:41.095Z,13.90
2023-05-13T19:20:09.054Z,13.90
2023-05-13T19:22:36.538Z,13.90
2023-05-13T19:25:05.225Z,14.00
2023-05-13T19:27:32.527Z,14.00
2023-05-13T19:30:01.384Z,14.00
2023-05-13T19:32:29.039Z,14.00
2023-05-13T19:34:56.389Z,14.00
2023-05-13T19:37:24.380Z,14.00
2023-05-13T19:39:51.821Z,14.00
2023-05-13T19:42:19.149Z,14.00
2023-05-13T19:44:46.506Z,14.00
2023-05-13T19:47:30.645Z,13.90
2023-05-13T19:49:58.117Z,13.90
2023-05-13T19:52:25.525Z,14.00
2023-05-13T19:54:52.940Z,13.90
2023-05-13T19:57:35.361Z,13.90
2023-05-13T20:00:09.248Z,13.90
2023-05-13T20:02:37.094Z,13.90
2023-05-13T20:05:05.726Z,13.80
2023-05-13T20:07:33.156Z,13.80
2023-05-13T20:10:01.222Z,13.70
2023-05-13T20:12:28.628Z,13.70
2023-05-13T20:14:57.989Z,13.60
2023-05-13T20:17:25.763Z,13.50
2023-05-13T20:19:54.580Z,13.50
2023-05-13T20:22:22.117Z,13.50
2023-05-13T20:24:50.591Z,13.50
2023-05-13T20:27:18.099Z,13.40
2023-05-13T20:29:46.996Z,13.40
2023-05-13T20:32:14.981Z,13.40
2023-05-13T20:34:42.330Z,13.30
2023-05-13T20:37:09.678Z,13.30
2023-05-13T20:39:37.046Z,13.30
2023-05-13T20:42:04.517Z,13.30
2023-05-13T20:44:31.846Z,13.30
2023-05-13T20:46:59.171Z,13.30
2023-05-13T20:49:26.888Z,13.30
2023-05-13T20:51:54.292Z,13.20
2023-05-13T20:54:21.669Z,13.20
2023-05-13T20:56:49.095Z,13.20
2023-05-13T20:59:16.502Z,13.20
2023-05-13T21:01:47.481Z,13.20
2023-05-13T21:04:15.664Z,13.10
2023-05-13T21:06:43.644Z,13.10
2023-05-13T21:09:10.945Z,13.10
2023-05-13T21:11:38.362Z,13.10
2023-05-13T21:14:05.751Z,13.00
2023-05-13T21:16:34.651Z,13.10
2023-05-13T21:19:02.116Z,13.00
2023-05-13T21:21:29.573Z,13.00
2023-05-13T21:23:56.838Z,13.00
2023-05-13T21:26:24.991Z,13.00
2023-05-13T21:28:52.287Z,13.00
2023-05-13T21:31:19.646Z,13.10
2023-05-13T21:33:51.625Z,13.10
2023-05-13T21:36:18.977Z,13.10
2023-05-13T21:38:46.280Z,13.10
2023-05-13T21:41:13.644Z,13.10
2023-05-13T21:43:40.989Z,13.10
2023-05-13T21:46:08.284Z,13.10
2023-05-13T21:48:35.621Z,13.10
2023-05-13T21:51:02.990Z,13.10
2023-05-13T21:53:30.242Z,13.10
2023-05-13T21:55:58.998Z,13.10
2023-05-13T21:58:26.315Z,13.10
2023-05-13T22:00:53.825Z,13.10
2023-05-13T22:03:21.201Z,13.00
2023-05-13T22:05:48.563Z,13.00
2023-05-13T22:08:15.948Z,13.00
2023-05-13T22:10:43.592Z,13.00
2023-05-13T22:13:11.103Z,13.00
2023-05-13T22:15:38.540Z,13.00
2023-05-13T22:18:06.126Z,12.90
2023-05-13T22:20:33.553Z,13.00
2023-05-13T22:23:00.870Z,13.00
2023-05-13T22:25:28.159Z,12.90
2023-05-13T22:27:55.862Z,12.90
2023-05-13T22:30:23.354Z,12.90
2023-05-13T22:32:51.558Z,12.90
2023-05-13T22:35:18.961Z,12.90
2023-05-13T22:37:46.282Z,12.90
2023-05-13T22:40:13.899Z,12.90
2023-05-13T22:42:41.263Z,12.90
2023-05-13T22:45:09.187Z,12.90
2023-05-13T22:47:39.467Z,13.00
2023-05-13T22:50:07.472Z,12.90
2023-05-13T22:52:34.848Z,12.90
2023-05-13T22:55:02.241Z,12.90
2023-05-13T22:57:29.570Z,12.90
2023-05-13T22:59:56.952Z,12.90
2023-05-13T23:02:24.696Z,12.90
2023-05-13T23:04:52.748Z,12.90
2023-05-13T23:07:20.384Z,12.90
2023-05-13T23:09:47.704Z,12.90
2023-05-13T23:12:15.011Z,12.90
2023-05-13T23:14:42.362Z,12.90
2023-05-13T23:17:09.702Z,12.90
2023-05-13T23:19:38.200Z,12.80
2023-05-13T23:22:05.933Z,12.80
2023-05-13T23:24:33.318Z,12.80
2023-05-13T23:27:03.856Z,12.80
2023-05-13T23:29:31.279Z,12.80
2023-05-13T23:32:46.900Z,12.80
2023-05-13T23:35:19.528Z,12.70
2023-05-13T23:37:46.952Z,12.70
2023-05-13T23:40:14.351Z,12.70
2023-05-13T23:42:43.012Z,12.70
2023-05-13T23:45:10.988Z,12.70
2023-05-13T23:47:38.343Z,12.70
2023-05-13T23:50:06.430Z,12.70
2023-05-13T23:52:34.020Z,12.60
2023-05-13T23:55:02.407Z,12.70
2023-05-13T23:57:29.951Z,12.60
2023-05-13T23:59:57.397Z,12.60
